sensor_id;sensor_type;location;lat;lon;timestamp;P1;durP1;ratioP1;P2;durP2;ratioP2
64520;SDS011;50896;46.714;17.322;2024-03-29T00:02:06;0.65;;;0.20;;
64520;SDS011;50896;46.714;17.322;2024-03-29T00:04:33;1.33;;;0.30;;
64520;SDS011;50896;46.714;17.322;2024-03-29T00:06:59;0.47;;;0.28;;
64520;SDS011;50896;46.714;17.322;2024-03-29T00:09:24;0.40;;;0.40;;
64520;SDS011;50896;46.714;17.322;2024-03-29T00:11:50;0.82;;;0.40;;
64520;SDS011;50896;46.714;17.322;2024-03-29T00:14:16;1.08;;;0.40;;
64520;SDS011;50896;46.714;17.322;2024-03-29T00:16:41;0.40;;;0.40;;
64520;SDS011;50896;46.714;17.322;2024-03-29T00:19:07;0.85;;;0.43;;
64520;SDS011;50896;46.714;17.322;2024-03-29T00:21:33;0.55;;;0.40;;
64520;SDS011;50896;46.714;17.322;2024-03-29T00:23:59;0.68;;;0.50;;
64520;SDS011;50896;46.714;17.322;2024-03-29T00:26:24;0.40;;;0.40;;
64520;SDS011;50896;46.714;17.322;2024-03-29T00:28:50;1.35;;;0.60;;
64520;SDS011;50896;46.714;17.322;2024-03-29T00:31:16;0.47;;;0.30;;
64520;SDS011;50896;46.714;17.322;2024-03-29T00:33:42;1.42;;;0.30;;
64520;SDS011;50896;46.714;17.322;2024-03-29T00:36:08;0.65;;;0.30;;
64520;SDS011;50896;46.714;17.322;2024-03-29T00:38:33;0.20;;;0.20;;
64520;SDS011;50896;46.714;17.322;2024-03-29T00:40:59;0.60;;;0.30;;
64520;SDS011;50896;46.714;17.322;2024-03-29T00:43:25;0.80;;;0.22;;
64520;SDS011;50896;46.714;17.322;2024-03-29T00:45:51;0.13;;;0.13;;
64520;SDS011;50896;46.714;17.322;2024-03-29T00:48:17;0.40;;;0.20;;
64520;SDS011;50896;46.714;17.322;2024-03-29T00:50:45;0.30;;;0.20;;
64520;SDS011;50896;46.714;17.322;2024-03-29T00:53:11;0.20;;;0.20;;
64520;SDS011;50896;46.714;17.322;2024-03-29T00:55:36;0.20;;;0.20;;
64520;SDS011;50896;46.714;17.322;2024-03-29T00:58:02;0.52;;;0.17;;
64520;SDS011;50896;46.714;17.322;2024-03-29T01:00:28;0.15;;;0.10;;
64520;SDS011;50896;46.714;17.322;2024-03-29T01:02:54;0.25;;;0.20;;
64520;SDS011;50896;46.714;17.322;2024-03-29T01:05:20;0.98;;;0.30;;
64520;SDS011;50896;46.714;17.322;2024-03-29T01:07:46;0.40;;;0.20;;
64520;SDS011;50896;46.714;17.322;2024-03-29T01:10:11;1.02;;;0.25;;
64520;SDS011;50896;46.714;17.322;2024-03-29T01:12:37;0.63;;;0.20;;
64520;SDS011;50896;46.714;17.322;2024-03-29T01:15:05;0.50;;;0.30;;
64520;SDS011;50896;46.714;17.322;2024-03-29T01:17:31;1.63;;;0.25;;
64520;SDS011;50896;46.714;17.322;2024-03-29T01:19:57;0.35;;;0.10;;
64520;SDS011;50896;46.714;17.322;2024-03-29T01:22:23;0.75;;;0.20;;
64520;SDS011;50896;46.714;17.322;2024-03-29T01:24:49;0.68;;;0.20;;
64520;SDS011;50896;46.714;17.322;2024-03-29T01:27:14;0.20;;;0.20;;
64520;SDS011;50896;46.714;17.322;2024-03-29T01:29:40;1.00;;;0.20;;
64520;SDS011;50896;46.714;17.322;2024-03-29T01:32:06;1.15;;;0.30;;
64520;SDS011;50896;46.714;17.322;2024-03-29T01:34:32;0.38;;;0.15;;
64520;SDS011;50896;46.714;17.322;2024-03-29T01:36:58;1.45;;;0.30;;
64520;SDS011;50896;46.714;17.322;2024-03-29T01:39:24;0.20;;;0.20;;
64520;SDS011;50896;46.714;17.322;2024-03-29T01:44:20;1.92;;;0.20;;
64520;SDS011;50896;46.714;17.322;2024-03-29T01:46:46;0.55;;;0.22;;
64520;SDS011;50896;46.714;17.322;2024-03-29T01:49:13;0.50;;;0.20;;
64520;SDS011;50896;46.714;17.322;2024-03-29T01:51:39;0.70;;;0.10;;
64520;SDS011;50896;46.714;17.322;2024-03-29T01:54:06;1.48;;;0.30;;
64520;SDS011;50896;46.714;17.322;2024-03-29T01:56:34;0.30;;;0.30;;
64520;SDS011;50896;46.714;17.322;2024-03-29T01:59:00;1.35;;;0.43;;
64520;SDS011;50896;46.714;17.322;2024-03-29T02:01:29;0.50;;;0.25;;
64520;SDS011;50896;46.714;17.322;2024-03-29T02:03:56;0.90;;;0.25;;
64520;SDS011;50896;46.714;17.322;2024-03-29T02:06:22;0.40;;;0.30;;
64520;SDS011;50896;46.714;17.322;2024-03-29T02:08:52;0.20;;;0.20;;
64520;SDS011;50896;46.714;17.322;2024-03-29T02:11:19;0.98;;;0.22;;
64520;SDS011;50896;46.714;17.322;2024-03-29T02:13:46;0.50;;;0.30;;
64520;SDS011;50896;46.714;17.322;2024-03-29T02:16:13;0.95;;;0.30;;
64520;SDS011;50896;46.714;17.322;2024-03-29T02:18:39;1.10;;;0.30;;
64520;SDS011;50896;46.714;17.322;2024-03-29T02:21:04;0.80;;;0.22;;
64520;SDS011;50896;46.714;17.322;2024-03-29T02:23:32;0.52;;;0.30;;
64520;SDS011;50896;46.714;17.322;2024-03-29T02:25:58;1.10;;;0.30;;
64520;SDS011;50896;46.714;17.322;2024-03-29T02:28:24;1.30;;;0.22;;
64520;SDS011;50896;46.714;17.322;2024-03-29T02:30:51;2.72;;;0.38;;
64520;SDS011;50896;46.714;17.322;2024-03-29T02:33:17;0.60;;;0.35;;
64520;SDS011;50896;46.714;17.322;2024-03-29T02:35:43;0.60;;;0.40;;
64520;SDS011;50896;46.714;17.322;2024-03-29T02:38:09;2.47;;;0.40;;
64520;SDS011;50896;46.714;17.322;2024-03-29T02:40:35;0.30;;;0.30;;
64520;SDS011;50896;46.714;17.322;2024-03-29T02:43:00;0.85;;;0.20;;
64520;SDS011;50896;46.714;17.322;2024-03-29T02:45:26;0.55;;;0.30;;
64520;SDS011;50896;46.714;17.322;2024-03-29T02:47:52;0.40;;;0.30;;
64520;SDS011;50896;46.714;17.322;2024-03-29T02:50:18;0.73;;;0.20;;
64520;SDS011;50896;46.714;17.322;2024-03-29T02:52:44;0.68;;;0.20;;
64520;SDS011;50896;46.714;17.322;2024-03-29T02:55:09;0.38;;;0.30;;
64520;SDS011;50896;46.714;17.322;2024-03-29T02:57:39;1.73;;;0.30;;
64520;SDS011;50896;46.714;17.322;2024-03-29T03:00:08;0.68;;;0.20;;
64520;SDS011;50896;46.714;17.322;2024-03-29T03:02:38;0.82;;;0.30;;
64520;SDS011;50896;46.714;17.322;2024-03-29T03:07:31;1.88;;;0.30;;
64520;SDS011;50896;46.714;17.322;2024-03-29T03:10:16;0.30;;;0.10;;
64520;SDS011;50896;46.714;17.322;2024-03-29T03:13:00;3.10;;;0.35;;
64520;SDS011;50896;46.714;17.322;2024-03-29T03:15:26;0.73;;;0.30;;
64520;SDS011;50896;46.714;17.322;2024-03-29T03:17:52;0.30;;;0.25;;
64520;SDS011;50896;46.714;17.322;2024-03-29T03:20:18;0.40;;;0.30;;
64520;SDS011;50896;46.714;17.322;2024-03-29T03:22:45;0.57;;;0.20;;
64520;SDS011;50896;46.714;17.322;2024-03-29T03:25:10;1.25;;;0.10;;
64520;SDS011;50896;46.714;17.322;2024-03-29T03:27:36;0.25;;;0.10;;
64520;SDS011;50896;46.714;17.322;2024-03-29T03:30:02;1.88;;;0.20;;
64520;SDS011;50896;46.714;17.322;2024-03-29T03:32:28;0.40;;;0.30;;
64520;SDS011;50896;46.714;17.322;2024-03-29T03:34:54;0.25;;;0.20;;
64520;SDS011;50896;46.714;17.322;2024-03-29T03:37:20;0.32;;;0.30;;
64520;SDS011;50896;46.714;17.322;2024-03-29T03:39:45;0.25;;;0.25;;
64520;SDS011;50896;46.714;17.322;2024-03-29T03:42:11;0.17;;;0.17;;
64520;SDS011;50896;46.714;17.322;2024-03-29T03:44:37;0.22;;;0.20;;
64520;SDS011;50896;46.714;17.322;2024-03-29T03:47:03;0.30;;;0.30;;
64520;SDS011;50896;46.714;17.322;2024-03-29T03:49:29;0.13;;;0.10;;
64520;SDS011;50896;46.714;17.322;2024-03-29T03:51:55;1.10;;;0.22;;
64520;SDS011;50896;46.714;17.322;2024-03-29T03:54:20;0.60;;;0.20;;
64520;SDS011;50896;46.714;17.322;2024-03-29T03:56:46;1.35;;;0.28;;
64520;SDS011;50896;46.714;17.322;2024-03-29T03:59:14;0.30;;;0.20;;
64520;SDS011;50896;46.714;17.322;2024-03-29T04:01:40;0.63;;;0.20;;
64520;SDS011;50896;46.714;17.322;2024-03-29T04:04:06;0.90;;;0.20;;
64520;SDS011;50896;46.714;17.322;2024-03-29T04:06:31;0.32;;;0.20;;
64520;SDS011;50896;46.714;17.322;2024-03-29T04:08:57;0.40;;;0.20;;
64520;SDS011;50896;46.714;17.322;2024-03-29T04:11:23;0.35;;;0.25;;
64520;SDS011;50896;46.714;17.322;2024-03-29T04:13:49;4.07;;;0.50;;
64520;SDS011;50896;46.714;17.322;2024-03-29T04:16:15;0.55;;;0.20;;
64520;SDS011;50896;46.714;17.322;2024-03-29T04:18:41;0.15;;;0.13;;
64520;SDS011;50896;46.714;17.322;2024-03-29T04:21:06;0.60;;;0.20;;
64520;SDS011;50896;46.714;17.322;2024-03-29T04:23:32;0.57;;;0.20;;
64520;SDS011;50896;46.714;17.322;2024-03-29T04:25:58;0.25;;;0.20;;
64520;SDS011;50896;46.714;17.322;2024-03-29T04:28:25;0.52;;;0.30;;
64520;SDS011;50896;46.714;17.322;2024-03-29T04:30:52;2.08;;;0.40;;
64520;SDS011;50896;46.714;17.322;2024-03-29T04:33:19;0.30;;;0.20;;
64520;SDS011;50896;46.714;17.322;2024-03-29T04:38:23;0.88;;;0.40;;
64520;SDS011;50896;46.714;17.322;2024-03-29T04:40:50;0.52;;;0.20;;
64520;SDS011;50896;46.714;17.322;2024-03-29T04:43:17;0.30;;;0.20;;
64520;SDS011;50896;46.714;17.322;2024-03-29T04:45:44;1.15;;;0.30;;
64520;SDS011;50896;46.714;17.322;2024-03-29T04:48:10;1.25;;;0.30;;
64520;SDS011;50896;46.714;17.322;2024-03-29T04:50:36;0.30;;;0.30;;
64520;SDS011;50896;46.714;17.322;2024-03-29T04:53:02;0.30;;;0.30;;
64520;SDS011;50896;46.714;17.322;2024-03-29T04:55:28;0.40;;;0.30;;
64520;SDS011;50896;46.714;17.322;2024-03-29T04:57:54;0.68;;;0.30;;
64520;SDS011;50896;46.714;17.322;2024-03-29T05:00:20;0.20;;;0.20;;
64520;SDS011;50896;46.714;17.322;2024-03-29T05:02:46;1.45;;;0.35;;
64520;SDS011;50896;46.714;17.322;2024-03-29T05:05:12;0.75;;;0.40;;
64520;SDS011;50896;46.714;17.322;2024-03-29T05:07:38;0.40;;;0.30;;
64520;SDS011;50896;46.714;17.322;2024-03-29T05:10:03;0.68;;;0.30;;
64520;SDS011;50896;46.714;17.322;2024-03-29T05:12:32;0.90;;;0.38;;
64520;SDS011;50896;46.714;17.322;2024-03-29T05:14:58;1.33;;;0.30;;
64520;SDS011;50896;46.714;17.322;2024-03-29T05:17:24;1.35;;;0.30;;
64520;SDS011;50896;46.714;17.322;2024-03-29T05:19:52;0.25;;;0.22;;
64520;SDS011;50896;46.714;17.322;2024-03-29T05:22:20;0.82;;;0.20;;
64520;SDS011;50896;46.714;17.322;2024-03-29T05:24:46;0.55;;;0.20;;
64520;SDS011;50896;46.714;17.322;2024-03-29T05:27:12;0.63;;;0.30;;
64520;SDS011;50896;46.714;17.322;2024-03-29T05:29:39;0.30;;;0.20;;
64520;SDS011;50896;46.714;17.322;2024-03-29T05:32:05;0.65;;;0.40;;
64520;SDS011;50896;46.714;17.322;2024-03-29T05:34:32;0.43;;;0.40;;
64520;SDS011;50896;46.714;17.322;2024-03-29T05:36:58;0.20;;;0.20;;
64520;SDS011;50896;46.714;17.322;2024-03-29T05:39:24;7.68;;;0.40;;
64520;SDS011;50896;46.714;17.322;2024-03-29T05:41:49;0.60;;;0.28;;
64520;SDS011;50896;46.714;17.322;2024-03-29T05:44:15;0.43;;;0.20;;
64520;SDS011;50896;46.714;17.322;2024-03-29T05:46:42;2.55;;;0.30;;
64520;SDS011;50896;46.714;17.322;2024-03-29T05:49:08;0.70;;;0.30;;
64520;SDS011;50896;46.714;17.322;2024-03-29T05:51:34;0.60;;;0.40;;
64520;SDS011;50896;46.714;17.322;2024-03-29T05:54:00;0.43;;;0.25;;
64520;SDS011;50896;46.714;17.322;2024-03-29T05:56:29;0.47;;;0.30;;
64520;SDS011;50896;46.714;17.322;2024-03-29T05:58:55;0.93;;;0.30;;
64520;SDS011;50896;46.714;17.322;2024-03-29T06:01:21;1.48;;;0.40;;
64520;SDS011;50896;46.714;17.322;2024-03-29T06:03:48;1.05;;;0.40;;
64520;SDS011;50896;46.714;17.322;2024-03-29T06:08:47;1.17;;;0.40;;
64520;SDS011;50896;46.714;17.322;2024-03-29T06:11:13;2.13;;;0.47;;
64520;SDS011;50896;46.714;17.322;2024-03-29T06:13:39;1.98;;;0.50;;
64520;SDS011;50896;46.714;17.322;2024-03-29T06:16:20;2.25;;;0.60;;
64520;SDS011;50896;46.714;17.322;2024-03-29T06:19:05;1.85;;;0.63;;
64520;SDS011;50896;46.714;17.322;2024-03-29T06:21:31;1.17;;;0.57;;
64520;SDS011;50896;46.714;17.322;2024-03-29T06:24:11;1.35;;;0.50;;
64520;SDS011;50896;46.714;17.322;2024-03-29T06:26:41;1.13;;;0.70;;
64520;SDS011;50896;46.714;17.322;2024-03-29T06:29:07;1.58;;;0.70;;
64520;SDS011;50896;46.714;17.322;2024-03-29T06:31:36;3.20;;;0.68;;
64520;SDS011;50896;46.714;17.322;2024-03-29T06:34:02;2.50;;;0.80;;
64520;SDS011;50896;46.714;17.322;2024-03-29T06:36:28;1.13;;;0.60;;
64520;SDS011;50896;46.714;17.322;2024-03-29T06:38:55;0.63;;;0.50;;
64520;SDS011;50896;46.714;17.322;2024-03-29T06:41:21;0.73;;;0.60;;
64520;SDS011;50896;46.714;17.322;2024-03-29T06:43:47;1.77;;;0.70;;
64520;SDS011;50896;46.714;17.322;2024-03-29T06:46:13;1.58;;;0.60;;
64520;SDS011;50896;46.714;17.322;2024-03-29T06:48:40;2.55;;;0.90;;
64520;SDS011;50896;46.714;17.322;2024-03-29T06:51:06;0.90;;;0.50;;
64520;SDS011;50896;46.714;17.322;2024-03-29T06:53:32;0.98;;;0.73;;
64520;SDS011;50896;46.714;17.322;2024-03-29T06:56:00;0.85;;;0.70;;
64520;SDS011;50896;46.714;17.322;2024-03-29T06:58:27;1.08;;;0.70;;
64520;SDS011;50896;46.714;17.322;2024-03-29T07:00:52;2.65;;;0.95;;
64520;SDS011;50896;46.714;17.322;2024-03-29T07:03:18;0.90;;;0.70;;
64520;SDS011;50896;46.714;17.322;2024-03-29T07:05:45;1.08;;;0.60;;
64520;SDS011;50896;46.714;17.322;2024-03-29T07:08:11;1.40;;;0.52;;
64520;SDS011;50896;46.714;17.322;2024-03-29T07:10:37;0.90;;;0.73;;
64520;SDS011;50896;46.714;17.322;2024-03-29T07:13:03;0.70;;;0.70;;
64520;SDS011;50896;46.714;17.322;2024-03-29T07:15:29;1.45;;;0.60;;
64520;SDS011;50896;46.714;17.322;2024-03-29T07:17:55;1.65;;;0.80;;
64520;SDS011;50896;46.714;17.322;2024-03-29T07:20:22;1.45;;;0.80;;
64520;SDS011;50896;46.714;17.322;2024-03-29T07:22:47;2.05;;;0.77;;
64520;SDS011;50896;46.714;17.322;2024-03-29T07:25:13;1.02;;;0.80;;
64520;SDS011;50896;46.714;17.322;2024-03-29T07:27:39;1.02;;;0.80;;
64520;SDS011;50896;46.714;17.322;2024-03-29T07:30:06;8.80;;;1.77;;
64520;SDS011;50896;46.714;17.322;2024-03-29T07:32:36;5.30;;;1.00;;
64520;SDS011;50896;46.714;17.322;2024-03-29T07:35:02;1.00;;;0.80;;
64520;SDS011;50896;46.714;17.322;2024-03-29T07:37:28;4.10;;;0.70;;
64520;SDS011;50896;46.714;17.322;2024-03-29T07:39:55;0.70;;;0.70;;
64520;SDS011;50896;46.714;17.322;2024-03-29T07:42:21;0.82;;;0.80;;
64520;SDS011;50896;46.714;17.322;2024-03-29T07:44:54;1.40;;;0.70;;
64520;SDS011;50896;46.714;17.322;2024-03-29T07:47:22;2.08;;;0.88;;
64520;SDS011;50896;46.714;17.322;2024-03-29T07:49:52;4.00;;;1.05;;
64520;SDS011;50896;46.714;17.322;2024-03-29T07:52:17;1.63;;;0.90;;
64520;SDS011;50896;46.714;17.322;2024-03-29T07:54:45;1.85;;;0.77;;
64520;SDS011;50896;46.714;17.322;2024-03-29T07:57:10;1.15;;;0.93;;
64520;SDS011;50896;46.714;17.322;2024-03-29T07:59:40;2.17;;;1.00;;
64520;SDS011;50896;46.714;17.322;2024-03-29T08:02:06;1.35;;;1.05;;
64520;SDS011;50896;46.714;17.322;2024-03-29T08:04:32;2.05;;;0.90;;
64520;SDS011;50896;46.714;17.322;2024-03-29T08:06:57;2.90;;;1.05;;
64520;SDS011;50896;46.714;17.322;2024-03-29T08:09:23;1.80;;;0.77;;
64520;SDS011;50896;46.714;17.322;2024-03-29T08:11:49;1.20;;;0.88;;
64520;SDS011;50896;46.714;17.322;2024-03-29T08:14:15;4.22;;;0.90;;
64520;SDS011;50896;46.714;17.322;2024-03-29T08:16:41;3.08;;;1.10;;
64520;SDS011;50896;46.714;17.322;2024-03-29T08:19:08;1.92;;;0.70;;
64520;SDS011;50896;46.714;17.322;2024-03-29T08:21:34;2.47;;;0.80;;
64520;SDS011;50896;46.714;17.322;2024-03-29T08:24:00;3.33;;;1.00;;
64520;SDS011;50896;46.714;17.322;2024-03-29T08:26:26;1.40;;;0.82;;
64520;SDS011;50896;46.714;17.322;2024-03-29T08:28:54;5.47;;;1.00;;
64520;SDS011;50896;46.714;17.322;2024-03-29T08:31:20;10.52;;;1.30;;
64520;SDS011;50896;46.714;17.322;2024-03-29T08:33:46;5.60;;;1.20;;
64520;SDS011;50896;46.714;17.322;2024-03-29T08:36:12;7.35;;;1.27;;
64520;SDS011;50896;46.714;17.322;2024-03-29T08:38:38;4.55;;;1.00;;
64520;SDS011;50896;46.714;17.322;2024-03-29T08:41:08;9.82;;;1.40;;
64520;SDS011;50896;46.714;17.322;2024-03-29T08:43:34;4.47;;;1.08;;
64520;SDS011;50896;46.714;17.322;2024-03-29T08:46:00;8.77;;;1.55;;
64520;SDS011;50896;46.714;17.322;2024-03-29T08:48:29;9.20;;;1.25;;
64520;SDS011;50896;46.714;17.322;2024-03-29T08:50:55;8.25;;;1.40;;
64520;SDS011;50896;46.714;17.322;2024-03-29T08:53:21;8.30;;;1.27;;
64520;SDS011;50896;46.714;17.322;2024-03-29T08:55:47;4.50;;;1.30;;
64520;SDS011;50896;46.714;17.322;2024-03-29T08:58:15;6.63;;;1.50;;
64520;SDS011;50896;46.714;17.322;2024-03-29T09:00:43;5.97;;;1.27;;
64520;SDS011;50896;46.714;17.322;2024-03-29T09:03:08;8.00;;;1.77;;
64520;SDS011;50896;46.714;17.322;2024-03-29T09:05:34;7.95;;;1.50;;
64520;SDS011;50896;46.714;17.322;2024-03-29T09:08:00;9.80;;;1.60;;
64520;SDS011;50896;46.714;17.322;2024-03-29T09:10:26;7.93;;;1.25;;
64520;SDS011;50896;46.714;17.322;2024-03-29T09:12:52;4.00;;;1.00;;
64520;SDS011;50896;46.714;17.322;2024-03-29T09:15:18;11.38;;;1.55;;
64520;SDS011;50896;46.714;17.322;2024-03-29T09:17:44;9.10;;;1.55;;
64520;SDS011;50896;46.714;17.322;2024-03-29T09:20:10;5.28;;;1.15;;
64520;SDS011;50896;46.714;17.322;2024-03-29T09:22:36;7.13;;;1.65;;
64520;SDS011;50896;46.714;17.322;2024-03-29T09:25:03;7.93;;;1.80;;
64520;SDS011;50896;46.714;17.322;2024-03-29T09:27:31;12.67;;;2.90;;
64520;SDS011;50896;46.714;17.322;2024-03-29T09:30:02;10.93;;;1.92;;
64520;SDS011;50896;46.714;17.322;2024-03-29T09:32:31;11.80;;;5.00;;
64520;SDS011;50896;46.714;17.322;2024-03-29T09:34:57;13.98;;;2.20;;
64520;SDS011;50896;46.714;17.322;2024-03-29T09:37:23;9.07;;;3.30;;
64520;SDS011;50896;46.714;17.322;2024-03-29T09:39:49;7.95;;;2.38;;
64520;SDS011;50896;46.714;17.322;2024-03-29T09:42:15;7.82;;;2.78;;
64520;SDS011;50896;46.714;17.322;2024-03-29T09:44:43;8.70;;;2.88;;
64520;SDS011;50896;46.714;17.322;2024-03-29T09:47:11;11.07;;;3.30;;
64520;SDS011;50896;46.714;17.322;2024-03-29T09:49:40;10.82;;;3.17;;
64520;SDS011;50896;46.714;17.322;2024-03-29T09:52:09;7.38;;;1.70;;
64520;SDS011;50896;46.714;17.322;2024-03-29T09:54:36;8.13;;;1.75;;
64520;SDS011;50896;46.714;17.322;2024-03-29T09:57:02;7.55;;;1.70;;
64520;SDS011;50896;46.714;17.322;2024-03-29T09:59:30;8.77;;;1.67;;
64520;SDS011;50896;46.714;17.322;2024-03-29T10:01:56;7.60;;;2.72;;
64520;SDS011;50896;46.714;17.322;2024-03-29T10:04:24;8.18;;;1.60;;
64520;SDS011;50896;46.714;17.322;2024-03-29T10:06:50;8.27;;;1.73;;
64520;SDS011;50896;46.714;17.322;2024-03-29T10:09:21;7.13;;;1.98;;
64520;SDS011;50896;46.714;17.322;2024-03-29T10:11:48;9.65;;;2.10;;
64520;SDS011;50896;46.714;17.322;2024-03-29T10:14:13;10.65;;;1.85;;
64520;SDS011;50896;46.714;17.322;2024-03-29T10:16:39;6.60;;;1.52;;
64520;SDS011;50896;46.714;17.322;2024-03-29T10:19:07;11.00;;;1.70;;
64520;SDS011;50896;46.714;17.322;2024-03-29T10:21:33;6.85;;;1.55;;
64520;SDS011;50896;46.714;17.322;2024-03-29T10:24:09;13.13;;;2.13;;
64520;SDS011;50896;46.714;17.322;2024-03-29T10:26:37;17.25;;;2.25;;
64520;SDS011;50896;46.714;17.322;2024-03-29T10:29:04;12.23;;;2.20;;
64520;SDS011;50896;46.714;17.322;2024-03-29T10:31:36;10.02;;;2.03;;
64520;SDS011;50896;46.714;17.322;2024-03-29T10:34:06;10.70;;;2.45;;
64520;SDS011;50896;46.714;17.322;2024-03-29T10:36:32;12.75;;;2.28;;
64520;SDS011;50896;46.714;17.322;2024-03-29T10:39:08;9.77;;;2.05;;
64520;SDS011;50896;46.714;17.322;2024-03-29T10:41:39;9.82;;;2.13;;
64520;SDS011;50896;46.714;17.322;2024-03-29T10:44:07;11.25;;;2.28;;
64520;SDS011;50896;46.714;17.322;2024-03-29T10:46:36;10.18;;;1.77;;
64520;SDS011;50896;46.714;17.322;2024-03-29T10:49:03;11.73;;;2.25;;
64520;SDS011;50896;46.714;17.322;2024-03-29T10:51:29;9.30;;;1.98;;
64520;SDS011;50896;46.714;17.322;2024-03-29T10:53:57;11.38;;;2.13;;
64520;SDS011;50896;46.714;17.322;2024-03-29T10:56:26;12.32;;;2.42;;
64520;SDS011;50896;46.714;17.322;2024-03-29T10:58:54;8.38;;;2.10;;
64520;SDS011;50896;46.714;17.322;2024-03-29T11:01:24;9.45;;;2.00;;
64520;SDS011;50896;46.714;17.322;2024-03-29T11:03:56;14.05;;;2.30;;
64520;SDS011;50896;46.714;17.322;2024-03-29T11:06:29;10.80;;;2.40;;
64520;SDS011;50896;46.714;17.322;2024-03-29T11:09:02;10.85;;;1.80;;
64520;SDS011;50896;46.714;17.322;2024-03-29T11:11:32;10.35;;;2.00;;
64520;SDS011;50896;46.714;17.322;2024-03-29T11:14:02;11.50;;;2.13;;
64520;SDS011;50896;46.714;17.322;2024-03-29T11:16:32;8.98;;;1.90;;
64520;SDS011;50896;46.714;17.322;2024-03-29T11:18:58;10.38;;;2.15;;
64520;SDS011;50896;46.714;17.322;2024-03-29T11:21:27;10.43;;;2.10;;
64520;SDS011;50896;46.714;17.322;2024-03-29T11:23:53;8.20;;;1.80;;
64520;SDS011;50896;46.714;17.322;2024-03-29T11:26:20;10.32;;;1.95;;
64520;SDS011;50896;46.714;17.322;2024-03-29T11:28:50;11.43;;;1.90;;
64520;SDS011;50896;46.714;17.322;2024-03-29T11:31:17;7.93;;;1.75;;
64520;SDS011;50896;46.714;17.322;2024-03-29T11:36:10;12.68;;;1.92;;
64520;SDS011;50896;46.714;17.322;2024-03-29T11:38:38;11.10;;;2.00;;
64520;SDS011;50896;46.714;17.322;2024-03-29T11:41:05;11.18;;;1.50;;
64520;SDS011;50896;46.714;17.322;2024-03-29T11:43:33;9.57;;;1.77;;
64520;SDS011;50896;46.714;17.322;2024-03-29T11:46:00;8.13;;;1.83;;
64520;SDS011;50896;46.714;17.322;2024-03-29T11:48:27;10.15;;;1.95;;
64520;SDS011;50896;46.714;17.322;2024-03-29T11:50:54;9.25;;;1.70;;
64520;SDS011;50896;46.714;17.322;2024-03-29T11:53:20;9.00;;;2.17;;
64520;SDS011;50896;46.714;17.322;2024-03-29T11:55:46;8.80;;;1.63;;
64520;SDS011;50896;46.714;17.322;2024-03-29T11:58:14;10.02;;;1.70;;
64520;SDS011;50896;46.714;17.322;2024-03-29T12:00:40;12.50;;;1.98;;
64520;SDS011;50896;46.714;17.322;2024-03-29T12:03:10;8.87;;;1.40;;
64520;SDS011;50896;46.714;17.322;2024-03-29T12:05:36;7.45;;;2.10;;
64520;SDS011;50896;46.714;17.322;2024-03-29T12:08:01;12.23;;;2.03;;
64520;SDS011;50896;46.714;17.322;2024-03-29T12:10:28;10.13;;;1.60;;
64520;SDS011;50896;46.714;17.322;2024-03-29T12:12:59;6.43;;;1.77;;
64520;SDS011;50896;46.714;17.322;2024-03-29T12:15:28;8.85;;;1.83;;
64520;SDS011;50896;46.714;17.322;2024-03-29T12:17:59;8.73;;;1.55;;
64520;SDS011;50896;46.714;17.322;2024-03-29T12:20:34;7.55;;;1.67;;
64520;SDS011;50896;46.714;17.322;2024-03-29T12:23:03;8.93;;;1.95;;
64520;SDS011;50896;46.714;17.322;2024-03-29T12:25:30;9.63;;;1.80;;
64520;SDS011;50896;46.714;17.322;2024-03-29T12:27:57;17.27;;;2.72;;
64520;SDS011;50896;46.714;17.322;2024-03-29T12:30:24;11.43;;;2.05;;
64520;SDS011;50896;46.714;17.322;2024-03-29T12:33:00;10.07;;;1.80;;
64520;SDS011;50896;46.714;17.322;2024-03-29T12:35:46;12.10;;;1.73;;
64520;SDS011;50896;46.714;17.322;2024-03-29T12:38:17;11.32;;;2.20;;
64520;SDS011;50896;46.714;17.322;2024-03-29T12:40:44;12.18;;;2.15;;
64520;SDS011;50896;46.714;17.322;2024-03-29T12:43:13;16.27;;;2.00;;
64520;SDS011;50896;46.714;17.322;2024-03-29T12:45:42;6.40;;;1.80;;
64520;SDS011;50896;46.714;17.322;2024-03-29T12:48:12;8.20;;;1.70;;
64520;SDS011;50896;46.714;17.322;2024-03-29T12:50:51;9.90;;;1.73;;
64520;SDS011;50896;46.714;17.322;2024-03-29T12:53:20;9.53;;;1.50;;
64520;SDS011;50896;46.714;17.322;2024-03-29T12:55:47;9.95;;;1.92;;
64520;SDS011;50896;46.714;17.322;2024-03-29T12:58:17;12.32;;;2.42;;
64520;SDS011;50896;46.714;17.322;2024-03-29T13:00:46;10.18;;;2.17;;
64520;SDS011;50896;46.714;17.322;2024-03-29T13:03:12;9.70;;;2.20;;
64520;SDS011;50896;46.714;17.322;2024-03-29T13:05:39;11.52;;;2.10;;
64520;SDS011;50896;46.714;17.322;2024-03-29T13:08:13;6.75;;;1.70;;
64520;SDS011;50896;46.714;17.322;2024-03-29T13:10:43;8.07;;;2.00;;
64520;SDS011;50896;46.714;17.322;2024-03-29T13:13:09;9.23;;;1.70;;
64520;SDS011;50896;46.714;17.322;2024-03-29T13:15:36;9.02;;;2.05;;
64520;SDS011;50896;46.714;17.322;2024-03-29T13:18:03;12.80;;;2.10;;
64520;SDS011;50896;46.714;17.322;2024-03-29T13:20:31;12.52;;;2.17;;
64520;SDS011;50896;46.714;17.322;2024-03-29T13:22:59;8.00;;;2.00;;
64520;SDS011;50896;46.714;17.322;2024-03-29T13:25:25;6.10;;;1.55;;
64520;SDS011;50896;46.714;17.322;2024-03-29T13:27:52;14.50;;;1.80;;
64520;SDS011;50896;46.714;17.322;2024-03-29T13:30:19;10.38;;;1.40;;
64520;SDS011;50896;46.714;17.322;2024-03-29T13:32:46;9.23;;;1.90;;
64520;SDS011;50896;46.714;17.322;2024-03-29T13:35:11;10.93;;;1.92;;
64520;SDS011;50896;46.714;17.322;2024-03-29T13:37:38;8.30;;;1.55;;
64520;SDS011;50896;46.714;17.322;2024-03-29T13:40:06;11.05;;;1.70;;
64520;SDS011;50896;46.714;17.322;2024-03-29T13:42:33;11.15;;;2.00;;
64520;SDS011;50896;46.714;17.322;2024-03-29T13:44:59;8.20;;;1.88;;
64520;SDS011;50896;46.714;17.322;2024-03-29T13:47:25;10.63;;;1.80;;
64520;SDS011;50896;46.714;17.322;2024-03-29T13:49:51;11.27;;;2.05;;
64520;SDS011;50896;46.714;17.322;2024-03-29T13:52:18;9.35;;;1.88;;
64520;SDS011;50896;46.714;17.322;2024-03-29T13:54:45;10.88;;;2.47;;
64520;SDS011;50896;46.714;17.322;2024-03-29T13:57:12;11.90;;;2.60;;
64520;SDS011;50896;46.714;17.322;2024-03-29T13:59:41;11.20;;;2.08;;
64520;SDS011;50896;46.714;17.322;2024-03-29T14:02:13;17.23;;;2.05;;
64520;SDS011;50896;46.714;17.322;2024-03-29T14:04:42;11.00;;;2.10;;
64520;SDS011;50896;46.714;17.322;2024-03-29T14:07:08;12.05;;;1.75;;
64520;SDS011;50896;46.714;17.322;2024-03-29T14:09:42;9.05;;;1.63;;
64520;SDS011;50896;46.714;17.322;2024-03-29T14:12:12;10.02;;;1.70;;
64520;SDS011;50896;46.714;17.322;2024-03-29T14:14:39;8.07;;;1.67;;
64520;SDS011;50896;46.714;17.322;2024-03-29T14:17:05;11.52;;;2.03;;
64520;SDS011;50896;46.714;17.322;2024-03-29T14:19:38;11.50;;;1.95;;
64520;SDS011;50896;46.714;17.322;2024-03-29T14:22:05;10.68;;;2.00;;
64520;SDS011;50896;46.714;17.322;2024-03-29T14:24:32;8.85;;;1.70;;
64520;SDS011;50896;46.714;17.322;2024-03-29T14:27:01;11.00;;;1.85;;
64520;SDS011;50896;46.714;17.322;2024-03-29T14:29:31;7.85;;;1.50;;
64520;SDS011;50896;46.714;17.322;2024-03-29T14:31:58;13.27;;;1.95;;
64520;SDS011;50896;46.714;17.322;2024-03-29T14:34:24;12.32;;;1.90;;
64520;SDS011;50896;46.714;17.322;2024-03-29T14:36:50;8.50;;;1.80;;
64520;SDS011;50896;46.714;17.322;2024-03-29T14:39:16;11.55;;;1.92;;
64520;SDS011;50896;46.714;17.322;2024-03-29T14:41:44;9.60;;;1.80;;
64520;SDS011;50896;46.714;17.322;2024-03-29T14:44:12;10.90;;;1.55;;